sensor_id;sensor_type;location;lat;lon;timestamp;pressure;altitude;pressure_sealevel;temperature
59339;BMP280;45117;50.960;5.500;2023-02-10T00:00:31;102673.03;;;3.48
59339;BMP280;45117;50.960;5.500;2023-02-10T00:02:58;102675.22;;;3.46
59339;BMP280;45117;50.960;5.500;2023-02-10T00:05:25;102677.34;;;3.44
59339;BMP280;45117;50.960;5.500;2023-02-10T00:07:52;102676.00;;;3.46
59339;BMP280;45117;50.960;5.500;2023-02-10T00:10:20;102686.09;;;3.44
59339;BMP280;45117;50.960;5.500;2023-02-10T00:12:46;102680.78;;;3.44
59339;BMP280;45117;50.960;5.500;2023-02-10T00:15:13;102685.84;;;3.46
59339;BMP280;45117;50.960;5.500;2023-02-10T00:17:39;102689.84;;;3.43
59339;BMP280;45117;50.960;5.500;2023-02-10T00:20:07;102681.09;;;3.43
59339;BMP280;45117;50.960;5.500;2023-02-10T00:22:34;102676.34;;;3.40
59339;BMP280;45117;50.960;5.500;2023-02-10T00:25:00;102678.75;;;3.41
59339;BMP280;45117;50.960;5.500;2023-02-10T00:27:28;102672.63;;;3.41
59339;BMP280;45117;50.960;5.500;2023-02-10T00:29:54;102672.34;;;3.42
59339;BMP280;45117;50.960;5.500;2023-02-10T00:32:21;102675.78;;;3.43
59339;BMP280;45117;50.960;5.500;2023-02-10T00:34:47;102678.44;;;3.43
59339;BMP280;45117;50.960;5.500;2023-02-10T00:37:14;102689.63;;;3.40
59339;BMP280;45117;50.960;5.500;2023-02-10T00:39:40;102687.28;;;3.38
59339;BMP280;45117;50.960;5.500;2023-02-10T00:42:07;102692.28;;;3.40
59339;BMP280;45117;50.960;5.500;2023-02-10T00:44:34;102690.41;;;3.40
59339;BMP280;45117;50.960;5.500;2023-02-10T00:47:01;102687.75;;;3.40
59339;BMP280;45117;50.960;5.500;2023-02-10T00:49:27;102684.91;;;3.37
59339;BMP280;45117;50.960;5.500;2023-02-10T00:51:54;102692.84;;;3.37
59339;BMP280;45117;50.960;5.500;2023-02-10T00:54:22;102688.63;;;3.36
59339;BMP280;45117;50.960;5.500;2023-02-10T00:56:48;102692.84;;;3.37
59339;BMP280;45117;50.960;5.500;2023-02-10T00:59:16;102700.34;;;3.35
59339;BMP280;45117;50.960;5.500;2023-02-10T01:01:43;102694.81;;;3.31
59339;BMP280;45117;50.960;5.500;2023-02-10T01:04:10;102701.47;;;3.28
59339;BMP280;45117;50.960;5.500;2023-02-10T01:06:37;102693.63;;;3.23
59339;BMP280;45117;50.960;5.500;2023-02-10T01:09:03;102702.66;;;3.22
59339;BMP280;45117;50.960;5.500;2023-02-10T01:11:30;102694.41;;;3.24
59339;BMP280;45117;50.960;5.500;2023-02-10T01:13:57;102695.78;;;3.21
59339;BMP280;45117;50.960;5.500;2023-02-10T01:16:23;102700.81;;;3.23
59339;BMP280;45117;50.960;5.500;2023-02-10T01:18:51;102697.66;;;3.21
59339;BMP280;45117;50.960;5.500;2023-02-10T01:21:19;102700.09;;;3.17
59339;BMP280;45117;50.960;5.500;2023-02-10T01:23:46;102702.19;;;3.20
59339;BMP280;45117;50.960;5.500;2023-02-10T01:26:13;102709.31;;;3.20
59339;BMP280;45117;50.960;5.500;2023-02-10T01:28:41;102704.63;;;3.17
59339;BMP280;45117;50.960;5.500;2023-02-10T01:31:08;102704.41;;;3.13
59339;BMP280;45117;50.960;5.500;2023-02-10T01:33:35;102708.63;;;3.14
59339;BMP280;45117;50.960;5.500;2023-02-10T01:36:04;102710.72;;;3.17
59339;BMP280;45117;50.960;5.500;2023-02-10T01:38:31;102710.97;;;3.16
59339;BMP280;45117;50.960;5.500;2023-02-10T01:40:57;102716.09;;;3.12
59339;BMP280;45117;50.960;5.500;2023-02-10T01:43:24;102719.81;;;3.11
59339;BMP280;45117;50.960;5.500;2023-02-10T01:45:51;102730.38;;;3.16
59339;BMP280;45117;50.960;5.500;2023-02-10T01:48:18;102727.19;;;3.14
59339;BMP280;45117;50.960;5.500;2023-02-10T01:50:47;102730.38;;;3.16
59339;BMP280;45117;50.960;5.500;2023-02-10T01:53:16;102731.94;;;3.17
59339;BMP280;45117;50.960;5.500;2023-02-10T01:55:45;102731.94;;;3.17
59339;BMP280;45117;50.960;5.500;2023-02-10T01:58:15;102733.03;;;3.16
59339;BMP280;45117;50.960;5.500;2023-02-10T02:00:42;102736.47;;;3.17
59339;BMP280;45117;50.960;5.500;2023-02-10T02:03:09;102725.31;;;3.15
59339;BMP280;45117;50.960;5.500;2023-02-10T02:05:37;102731.44;;;3.15
59339;BMP280;45117;50.960;5.500;2023-02-10T02:08:06;102732.81;;;3.13
59339;BMP280;45117;50.960;5.500;2023-02-10T02:10:43;102732.81;;;3.13
59339;BMP280;45117;50.960;5.500;2023-02-10T02:13:15;102734.06;;;3.15
59339;BMP280;45117;50.960;5.500;2023-02-10T02:15:47;102739.38;;;3.15
59339;BMP280;45117;50.960;5.500;2023-02-10T02:18:23;102743.13;;;3.14
59339;BMP280;45117;50.960;5.500;2023-02-10T02:21:14;102741.78;;;3.17
59339;BMP280;45117;50.960;5.500;2023-02-10T02:24:07;102741.78;;;3.17
59339;BMP280;45117;50.960;5.500;2023-02-10T02:27:06;102738.34;;;3.16
59339;BMP280;45117;50.960;5.500;2023-02-10T02:32:48;102732.50;;;3.14
59339;BMP280;45117;50.960;5.500;2023-02-10T02:35:19;102739.38;;;3.15
59339;BMP280;45117;50.960;5.500;2023-02-10T02:37:46;102742.34;;;3.14
59339;BMP280;45117;50.960;5.500;2023-02-10T02:40:16;102736.03;;;3.10
59339;BMP280;45117;50.960;5.500;2023-02-10T02:42:42;102732.06;;;3.07
59339;BMP280;45117;50.960;5.500;2023-02-10T02:45:11;102741.31;;;3.10
59339;BMP280;45117;50.960;5.500;2023-02-10T02:47:54;102747.41;;;3.10
59339;BMP280;45117;50.960;5.500;2023-02-10T02:50:25;102746.63;;;3.10
59339;BMP280;45117;50.960;5.500;2023-02-10T02:53:08;102754.28;;;3.11
59339;BMP280;45117;50.960;5.500;2023-02-10T02:55:52;102740.03;;;3.07
59339;BMP280;45117;50.960;5.500;2023-02-10T02:58:31;102742.69;;;3.07
59339;BMP280;45117;50.960;5.500;2023-02-10T03:01:02;102739.75;;;3.09
59339;BMP280;45117;50.960;5.500;2023-02-10T03:03:32;102727.84;;;3.06
59339;BMP280;45117;50.960;5.500;2023-02-10T03:05:59;102726.75;;;3.07
59339;BMP280;45117;50.960;5.500;2023-02-10T03:08:26;102713.78;;;3.05
59339;BMP280;45117;50.960;5.500;2023-02-10T03:10:53;102700.81;;;3.04
59339;BMP280;45117;50.960;5.500;2023-02-10T03:13:19;102702.19;;;3.01
59339;BMP280;45117;50.960;5.500;2023-02-10T03:15:46;102692.75;;;2.95
59339;BMP280;45117;50.960;5.500;2023-02-10T03:18:12;102677.97;;;2.89
59339;BMP280;45117;50.960;5.500;2023-02-10T03:20:40;102684.44;;;2.83
59339;BMP280;45117;50.960;5.500;2023-02-10T03:23:07;102694.25;;;2.83
59339;BMP280;45117;50.960;5.500;2023-02-10T03:25:34;102699.84;;;2.81
59339;BMP280;45117;50.960;5.500;2023-02-10T03:28:00;102710.75;;;2.79
59339;BMP280;45117;50.960;5.500;2023-02-10T03:30:27;102707.31;;;2.79
59339;BMP280;45117;50.960;5.500;2023-02-10T03:32:53;102712.09;;;2.77
59339;BMP280;45117;50.960;5.500;2023-02-10T03:35:20;102713.47;;;2.74
59339;BMP280;45117;50.960;5.500;2023-02-10T03:37:48;102724.06;;;2.74
59339;BMP280;45117;50.960;5.500;2023-02-10T03:40:15;102715.03;;;2.75
59339;BMP280;45117;50.960;5.500;2023-02-10T03:42:41;102730.88;;;2.80
59339;BMP280;45117;50.960;5.500;2023-02-10T03:45:08;102734.03;;;2.83
59339;BMP280;45117;50.960;5.500;2023-02-10T03:47:35;102725.00;;;2.84
59339;BMP280;45117;50.960;5.500;2023-02-10T03:50:02;102724.94;;;2.89
59339;BMP280;45117;50.960;5.500;2023-02-10T03:52:28;102724.38;;;2.92
59339;BMP280;45117;50.960;5.500;2023-02-10T03:54:56;102717.38;;;2.96
59339;BMP280;45117;50.960;5.500;2023-02-10T03:57:22;102717.09;;;2.97
59339;BMP280;45117;50.960;5.500;2023-02-10T03:59:49;102729.44;;;2.88
59339;BMP280;45117;50.960;5.500;2023-02-10T04:02:15;102724.94;;;2.89
59339;BMP280;45117;50.960;5.500;2023-02-10T04:04:42;102736.31;;;2.89
59339;BMP280;45117;50.960;5.500;2023-02-10T04:07:08;102741.78;;;2.79
59339;BMP280;45117;50.960;5.500;2023-02-10T04:09:35;102748.19;;;2.73
59339;BMP280;45117;50.960;5.500;2023-02-10T04:12:03;102758.00;;;2.72
59339;BMP280;45117;50.960;5.500;2023-02-10T04:14:29;102760.97;;;2.71
59339;BMP280;45117;50.960;5.500;2023-02-10T04:16:56;102762.31;;;2.68
59339;BMP280;45117;50.960;5.500;2023-02-10T04:19:22;102766.53;;;2.69
59339;BMP280;45117;50.960;5.500;2023-02-10T04:21:49;102772.41;;;2.66
59339;BMP280;45117;50.960;5.500;2023-02-10T04:24:15;102761.03;;;2.66
59339;BMP280;45117;50.960;5.500;2023-02-10T04:26:42;102771.34;;;2.67
59339;BMP280;45117;50.960;5.500;2023-02-10T04:29:09;102773.00;;;2.63
59339;BMP280;45117;50.960;5.500;2023-02-10T04:31:36;102768.56;;;2.59
59339;BMP280;45117;50.960;5.500;2023-02-10T04:34:02;102758.75;;;2.59
59339;BMP280;45117;50.960;5.500;2023-02-10T04:36:29;102763.09;;;2.50
59339;BMP280;45117;50.960;5.500;2023-02-10T04:38:55;102766.59;;;2.45
59339;BMP280;45117;50.960;5.500;2023-02-10T04:41:22;102767.75;;;2.34
59339;BMP280;45117;50.960;5.500;2023-02-10T04:43:48;102757.53;;;2.27
59339;BMP280;45117;50.960;5.500;2023-02-10T04:46:16;102754.38;;;2.25
59339;BMP280;45117;50.960;5.500;2023-02-10T04:48:43;102753.34;;;2.21
59339;BMP280;45117;50.960;5.500;2023-02-10T04:51:11;102755.25;;;2.16
59339;BMP280;45117;50.960;5.500;2023-02-10T04:53:39;102775.38;;;2.17
59339;BMP280;45117;50.960;5.500;2023-02-10T04:56:06;102764.06;;;2.11
59339;BMP280;45117;50.960;5.500;2023-02-10T04:58:33;102764.38;;;2.05
59339;BMP280;45117;50.960;5.500;2023-02-10T05:00:59;102759.38;;;1.98
59339;BMP280;45117;50.960;5.500;2023-02-10T05:03:28;102757.56;;;1.93
59339;BMP280;45117;50.960;5.500;2023-02-10T05:05:54;102753.44;;;1.87
59339;BMP280;45117;50.960;5.500;2023-02-10T05:08:21;102749.41;;;1.90
59339;BMP280;45117;50.960;5.500;2023-02-10T05:10:49;102746.56;;;1.86
59339;BMP280;45117;50.960;5.500;2023-02-10T05:13:15;102752.31;;;1.88
59339;BMP280;45117;50.960;5.500;2023-02-10T05:15:42;102748.13;;;1.87
59339;BMP280;45117;50.960;5.500;2023-02-10T05:18:09;102752.69;;;1.82
59339;BMP280;45117;50.960;5.500;2023-02-10T05:20:37;102744.81;;;1.71
59339;BMP280;45117;50.960;5.500;2023-02-10T05:23:04;102751.13;;;1.75
59339;BMP280;45117;50.960;5.500;2023-02-10T05:25:31;102749.63;;;1.69
59339;BMP280;45117;50.960;5.500;2023-02-10T05:27:57;102754.97;;;1.59
59339;BMP280;45117;50.960;5.500;2023-02-10T05:30:24;102751.28;;;1.60
59339;BMP280;45117;50.960;5.500;2023-02-10T05:32:50;102756.63;;;1.50
59339;BMP280;45117;50.960;5.500;2023-02-10T05:35:17;102755.56;;;1.51
59339;BMP280;45117;50.960;5.500;2023-02-10T05:37:45;102758.00;;;1.42
59339;BMP280;45117;50.960;5.500;2023-02-10T05:40:11;102751.44;;;1.35
59339;BMP280;45117;50.960;5.500;2023-02-10T05:42:38;102764.19;;;1.33
59339;BMP280;45117;50.960;5.500;2023-02-10T05:45:04;102763.41;;;1.32
59339;BMP280;45117;50.960;5.500;2023-02-10T05:47:31;102767.41;;;1.24
59339;BMP280;45117;50.960;5.500;2023-02-10T05:49:57;102768.50;;;1.18
59339;BMP280;45117;50.960;5.500;2023-02-10T05:52:24;102752.94;;;1.12
59339;BMP280;45117;50.960;5.500;2023-02-10T05:54:52;102769.59;;;1.12
59339;BMP280;45117;50.960;5.500;2023-02-10T05:57:18;102765.66;;;1.05
59339;BMP280;45117;50.960;5.500;2023-02-10T05:59:44;102766.19;;;1.07
59339;BMP280;45117;50.960;5.500;2023-02-10T06:02:11;102765.16;;;1.03
59339;BMP280;45117;50.960;5.500;2023-02-10T06:04:37;102763.34;;;0.93
59339;BMP280;45117;50.960;5.500;2023-02-10T06:07:04;102771.00;;;0.94
59339;BMP280;45117;50.960;5.500;2023-02-10T06:09:30;102764.97;;;0.84
59339;BMP280;45117;50.960;5.500;2023-02-10T06:11:58;102768.66;;;0.83
59339;BMP280;45117;50.960;5.500;2023-02-10T06:14:25;102769.50;;;0.78
59339;BMP280;45117;50.960;5.500;2023-02-10T06:16:52;102768.97;;;0.81
59339;BMP280;45117;50.960;5.500;2023-02-10T06:19:18;102778.75;;;0.70
59339;BMP280;45117;50.960;5.500;2023-02-10T06:21:45;102781.94;;;0.72
59339;BMP280;45117;50.960;5.500;2023-02-10T06:24:11;102785.91;;;0.70
59339;BMP280;45117;50.960;5.500;2023-02-10T06:26:38;102789.31;;;0.75
59339;BMP280;45117;50.960;5.500;2023-02-10T06:29:06;102788.22;;;0.87
59339;BMP280;45117;50.960;5.500;2023-02-10T06:31:32;102787.97;;;0.83
59339;BMP280;45117;50.960;5.500;2023-02-10T06:33:59;102794.06;;;0.79
59339;BMP280;45117;50.960;5.500;2023-02-10T06:36:25;102799.63;;;0.77
59339;BMP280;45117;50.960;5.500;2023-02-10T06:38:52;102796.44;;;0.80
59339;BMP280;45117;50.960;5.500;2023-02-10T06:41:18;102804.91;;;0.77
59339;BMP280;45117;50.960;5.500;2023-02-10T06:43:45;102803.84;;;0.78
59339;BMP280;45117;50.960;5.500;2023-02-10T06:46:13;102801.69;;;0.90
59339;BMP280;45117;50.960;5.500;2023-02-10T06:48:40;102798.00;;;0.86
59339;BMP280;45117;50.960;5.500;2023-02-10T06:51:07;102789.28;;;0.86
59339;BMP280;45117;50.960;5.500;2023-02-10T06:53:33;102788.75;;;0.84
59339;BMP280;45117;50.960;5.500;2023-02-10T06:56:01;102784.59;;;0.72
59339;BMP280;45117;50.960;5.500;2023-02-10T06:58:27;102790.38;;;0.74
59339;BMP280;45117;50.960;5.500;2023-02-10T07:00:54;102789.63;;;0.69
59339;BMP280;45117;50.960;5.500;2023-02-10T07:03:22;102789.88;;;0.62
59339;BMP280;45117;50.960;5.500;2023-02-10T07:05:48;102794.66;;;0.60
59339;BMP280;45117;50.960;5.500;2023-02-10T07:08:16;102799.16;;;0.60
59339;BMP280;45117;50.960;5.500;2023-02-10T07:10:42;102790.94;;;0.66
59339;BMP280;45117;50.960;5.500;2023-02-10T07:13:09;102793.53;;;0.71
59339;BMP280;45117;50.960;5.500;2023-02-10T07:15:35;102788.28;;;0.66
59339;BMP280;45117;50.960;5.500;2023-02-10T07:18:02;102789.88;;;0.72
59339;BMP280;45117;50.960;5.500;2023-02-10T07:20:30;102790.88;;;0.82
59339;BMP280;45117;50.960;5.500;2023-02-10T07:22:56;102795.88;;;0.83
59339;BMP280;45117;50.960;5.500;2023-02-10T07:25:23;102793.75;;;0.90
59339;BMP280;45117;50.960;5.500;2023-02-10T07:27:49;102807.47;;;0.92
59339;BMP280;45117;50.960;5.500;2023-02-10T07:30:16;102804.06;;;0.92
59339;BMP280;45117;50.960;5.500;2023-02-10T07:32:42;102813.03;;;0.96
59339;BMP280;45117;50.960;5.500;2023-02-10T07:35:09;102807.19;;;1.04
59339;BMP280;45117;50.960;5.500;2023-02-10T07:37:37;102800.03;;;1.10
59339;BMP280;45117;50.960;5.500;2023-02-10T07:40:05;102794.44;;;1.16
59339;BMP280;45117;50.960;5.500;2023-02-10T07:42:31;102798.09;;;1.25
59339;BMP280;45117;50.960;5.500;2023-02-10T07:44:59;102803.63;;;1.29
59339;BMP280;45117;50.960;5.500;2023-02-10T07:47:26;102810.44;;;1.35
59339;BMP280;45117;50.960;5.500;2023-02-10T07:49:52;102809.59;;;1.45
59339;BMP280;45117;50.960;5.500;2023-02-10T07:52:19;102805.28;;;1.54
59339;BMP280;45117;50.960;5.500;2023-02-10T07:54:47;102819.28;;;1.60
59339;BMP280;45117;50.960;5.500;2023-02-10T07:57:14;102813.69;;;1.66
59339;BMP280;45117;50.960;5.500;2023-02-10T07:59:41;102808.09;;;1.73
59339;BMP280;45117;50.960;5.500;2023-02-10T08:02:09;102812.81;;;1.76
59339;BMP280;45117;50.960;5.500;2023-02-10T08:04:35;102815.41;;;1.81
59339;BMP280;45117;50.960;5.500;2023-02-10T08:07:02;102822.28;;;1.87
59339;BMP280;45117;50.960;5.500;2023-02-10T08:09:29;102832.97;;;2.01
59339;BMP280;45117;50.960;5.500;2023-02-10T08:11:56;102843.78;;;2.10
59339;BMP280;45117;50.960;5.500;2023-02-10T08:14:23;102845.88;;;2.13
59339;BMP280;45117;50.960;5.500;2023-02-10T08:16:50;102836.53;;;2.20
59339;BMP280;45117;50.960;5.500;2023-02-10T08:19:16;102847.03;;;2.31
59339;BMP280;45117;50.960;5.500;2023-02-10T08:21:43;102844.72;;;2.48
59339;BMP280;45117;50.960;5.500;2023-02-10T08:24:09;102843.81;;;2.63
59339;BMP280;45117;50.960;5.500;2023-02-10T08:26:36;102841.84;;;2.68
59339;BMP280;45117;50.960;5.500;2023-02-10T08:29:04;102844.22;;;2.70
59339;BMP280;45117;50.960;5.500;2023-02-10T08:31:32;102844.59;;;2.82
59339;BMP280;45117;50.960;5.500;2023-02-10T08:33:58;102853.03;;;2.89
59339;BMP280;45117;50.960;5.500;2023-02-10T08:36:24;102847.66;;;2.94
59339;BMP280;45117;50.960;5.500;2023-02-10T08:38:51;102840.91;;;3.02
59339;BMP280;45117;50.960;5.500;2023-02-10T08:41:18;102839.34;;;3.01
59339;BMP280;45117;50.960;5.500;2023-02-10T08:43:45;102836.06;;;3.09
59339;BMP280;45117;50.960;5.500;2023-02-10T08:46:13;102826.44;;;3.13
59339;BMP280;45117;50.960;5.500;2023-02-10T08:48:40;102830.03;;;3.22
59339;BMP280;45117;50.960;5.500;2023-02-10T08:51:08;102834.47;;;3.27
59339;BMP280;45117;50.960;5.500;2023-02-10T08:53:36;102832.75;;;3.36
59339;BMP280;45117;50.960;5.500;2023-02-10T08:56:04;102830.31;;;3.40
59339;BMP280;45117;50.960;5.500;2023-02-10T08:58:31;102828.78;;;3.52
59339;BMP280;45117;50.960;5.500;2023-02-10T09:00:58;102843.72;;;3.67
59339;BMP280;45117;50.960;5.500;2023-02-10T09:03:26;102843.63;;;3.72
59339;BMP280;45117;50.960;5.500;2023-02-10T09:05:54;102844.22;;;3.83
59339;BMP280;45117;50.960;5.500;2023-02-10T09:08:20;102856.16;;;3.99
59339;BMP280;45117;50.960;5.500;2023-02-10T09:10:47;102855.00;;;4.05
59339;BMP280;45117;50.960;5.500;2023-02-10T09:13:14;102845.09;;;4.25
59339;BMP280;45117;50.960;5.500;2023-02-10T09:15:41;102846.25;;;4.19
59339;BMP280;45117;50.960;5.500;2023-02-10T09:18:09;102842.16;;;4.26
59339;BMP280;45117;50.960;5.500;2023-02-10T09:20:37;102839.03;;;4.38
59339;BMP280;45117;50.960;5.500;2023-02-10T09:23:04;102841.75;;;4.47
59339;BMP280;45117;50.960;5.500;2023-02-10T09:25:30;102839.69;;;4.57
59339;BMP280;45117;50.960;5.500;2023-02-10T09:27:57;102843.91;;;4.45
59339;BMP280;45117;50.960;5.500;2023-02-10T09:30:24;102846.75;;;4.62
59339;BMP280;45117;50.960;5.500;2023-02-10T09:32:50;102849.63;;;4.66
59339;BMP280;45117;50.960;5.500;2023-02-10T09:35:17;102852.06;;;4.76
59339;BMP280;45117;50.960;5.500;2023-02-10T09:37:45;102849.59;;;4.79
59339;BMP280;45117;50.960;5.500;2023-02-10T09:40:16;102839.34;;;4.86
59339;BMP280;45117;50.960;5.500;2023-02-10T09:42:57;102853.25;;;4.83
59339;BMP280;45117;50.960;5.500;2023-02-10T09:45:31;102849.88;;;4.92
59339;BMP280;45117;50.960;5.500;2023-02-10T09:48:00;102842.13;;;4.81
59339;BMP280;45117;50.960;5.500;2023-02-10T09:50:40;102843.38;;;4.98
59339;BMP280;45117;50.960;5.500;2023-02-10T09:53:15;102836.44;;;5.10
59339;BMP280;45117;50.960;5.500;2023-02-10T09:55:46;102836.50;;;5.19
59339;BMP280;45117;50.960;5.500;2023-02-10T09:58:18;102843.16;;;5.08
59339;BMP280;45117;50.960;5.500;2023-02-10T10:00:47;102845.28;;;5.20
59339;BMP280;45117;50.960;5.500;2023-02-10T10:03:16;102846.75;;;5.48
59339;BMP280;45117;50.960;5.500;2023-02-10T10:05:48;102841.75;;;5.78
59339;BMP280;45117;50.960;5.500;2023-02-10T10:08:23;102838.59;;;5.76
59339;BMP280;45117;50.960;5.500;2023-02-10T10:10:51;102845.34;;;6.04
59339;BMP280;45117;50.960;5.500;2023-02-10T10:13:21;102847.47;;;6.33
59339;BMP280;45117;50.960;5.500;2023-02-10T10:16:08;102847.03;;;6.48
59339;BMP280;45117;50.960;5.500;2023-02-10T10:18:47;102859.97;;;7.24
59339;BMP280;45117;50.960;5.500;2023-02-10T10:21:22;102868.13;;;7.28
59339;BMP280;45117;50.960;5.500;2023-02-10T10:24:03;102853.81;;;7.41
59339;BMP280;45117;50.960;5.500;2023-02-10T10:26:43;102861.16;;;7.53
59339;BMP280;45117;50.960;5.500;2023-02-10T10:29:28;102853.94;;;7.53
59339;BMP280;45117;50.960;5.500;2023-02-10T10:32:04;102863.69;;;7.41
59339;BMP280;45117;50.960;5.500;2023-02-10T10:34:36;102858.91;;;7.81
59339;BMP280;45117;50.960;5.500;2023-02-10T10:37:11;102859.78;;;7.94
59339;BMP280;45117;50.960;5.500;2023-02-10T10:39:42;102854.06;;;7.66
59339;BMP280;45117;50.960;5.500;2023-02-10T10:42:18;102848.38;;;8.14
59339;BMP280;45117;50.960;5.500;2023-02-10T10:44:47;102861.50;;;7.98
59339;BMP280;45117;50.960;5.500;2023-02-10T10:47:18;102858.81;;;8.28
59339;BMP280;45117;50.960;5.500;2023-02-10T10:49:45;102851.06;;;8.05
59339;BMP280;45117;50.960;5.500;2023-02-10T10:52:23;102850.75;;;8.07
59339;BMP280;45117;50.960;5.500;2023-02-10T10:54:54;102845.59;;;8.02
59339;BMP280;45117;50.960;5.500;2023-02-10T10:57:20;102849.13;;;8.23
59339;BMP280;45117;50.960;5.500;2023-02-10T10:59:51;102840.09;;;8.28
59339;BMP280;45117;50.960;5.500;2023-02-10T11:02:22;102843.72;;;8.02
59339;BMP280;45117;50.960;5.500;2023-02-10T11:04:59;102838.69;;;8.30
59339;BMP280;45117;50.960;5.500;2023-02-10T11:07:28;102840.16;;;8.19
59339;BMP280;45117;50.960;5.500;2023-02-10T11:09:59;102837.41;;;8.28
59339;BMP280;45117;50.960;5.500;2023-02-10T11:12:31;102833.50;;;8.25
59339;BMP280;45117;50.960;5.500;2023-02-10T11:14:59;102835.53;;;8.28
59339;BMP280;45117;50.960;5.500;2023-02-10T11:17:30;102834.81;;;8.19
59339;BMP280;45117;50.960;5.500;2023-02-10T11:20:02;102824.72;;;8.16
59339;BMP280;45117;50.960;5.500;2023-02-10T11:22:29;102825.66;;;8.20
59339;BMP280;45117;50.960;5.500;2023-02-10T11:24:58;102816.56;;;8.21
59339;BMP280;45117;50.960;5.500;2023-02-10T11:27:25;102821.75;;;8.18
59339;BMP280;45117;50.960;5.500;2023-02-10T11:29:53;102820.97;;;8.17
59339;BMP280;45117;50.960;5.500;2023-02-10T11:32:21;102814.78;;;8.25
59339;BMP280;45117;50.960;5.500;2023-02-10T11:34:50;102813.16;;;8.33
59339;BMP280;45117;50.960;5.500;2023-02-10T11:37:21;102821.09;;;8.21
59339;BMP280;45117;50.960;5.500;2023-02-10T11:39:49;102813.16;;;8.33
59339;BMP280;45117;50.960;5.500;2023-02-10T11:42:19;102808.06;;;8.40
59339;BMP280;45117;50.960;5.500;2023-02-10T11:44:58;102805.47;;;8.52
59339;BMP280;45117;50.960;5.500;2023-02-10T11:47:26;102803.75;;;8.48
59339;BMP280;45117;50.960;5.500;2023-02-10T11:49:53;102800.03;;;8.40
59339;BMP280;45117;50.960;5.500;2023-02-10T11:52:22;102809.47;;;8.37
59339;BMP280;45117;50.960;5.500;2023-02-10T11:54:49;102817.47;;;8.46
59339;BMP280;45117;50.960;5.500;2023-02-10T11:57:26;102812.00;;;8.43
59339;BMP280;45117;50.960;5.500;2023-02-10T12:00:19;102813.28;;;8.57
59339;BMP280;45117;50.960;5.500;2023-02-10T12:03:05;102801.53;;;8.71
59339;BMP280;45117;50.960;5.500;2023-02-10T12:05:44;102800.34;;;8.80
59339;BMP280;45117;50.960;5.500;2023-02-10T12:08:20;102800.47;;;8.84
59339;BMP280;45117;50.960;5.500;2023-02-10T12:10:55;102801.34;;;8.88
59339;BMP280;45117;50.960;5.500;2023-02-10T12:13:32;102802.06;;;8.85
59339;BMP280;45117;50.960;5.500;2023-02-10T12:16:12;102793.56;;;8.83
59339;BMP280;45117;50.960;5.500;2023-02-10T12:18:50;102792.97;;;9.10
59339;BMP280;45117;50.960;5.500;2023-02-10T12:21:29;102790.75;;;9.24
59339;BMP280;45117;50.960;5.500;2023-02-10T12:24:07;102793.78;;;9.35
59339;BMP280;45117;50.960;5.500;2023-02-10T12:26:43;102782.19;;;9.31
59339;BMP280;45117;50.960;5.500;2023-02-10T12:29:29;102773.81;;;9.33
59339;BMP280;45117;50.960;5.500;2023-02-10T12:32:06;102765.75;;;9.33
59339;BMP280;45117;50.960;5.500;2023-02-10T12:34:48;102762.63;;;9.18
59339;BMP280;45117;50.960;5.500;2023-02-10T12:37:25;102760.84;;;9.22
59339;BMP280;45117;50.960;5.500;2023-02-10T12:40:07;102752.09;;;9.25
59339;BMP280;45117;50.960;5.500;2023-02-10T12:42:44;102756.72;;;9.49
59339;BMP280;45117;50.960;5.500;2023-02-10T12:45:20;102746.44;;;9.27
59339;BMP280;45117;50.960;5.500;2023-02-10T12:47:56;102759.63;;;9.32
59339;BMP280;45117;50.960;5.500;2023-02-10T12:50:43;102752.03;;;9.22
59339;BMP280;45117;50.960;5.500;2023-02-10T12:53:15;102751.31;;;9.25
59339;BMP280;45117;50.960;5.500;2023-02-10T12:55:50;102739.16;;;9.15
59339;BMP280;45117;50.960;5.500;2023-02-10T12:58:21;102743.19;;;9.21
59339;BMP280;45117;50.960;5.500;2023-02-10T13:00:53;102741.75;;;9.36
59339;BMP280;45117;50.960;5.500;2023-02-10T13:03:26;102740.41;;;9.42
59339;BMP280;45117;50.960;5.500;2023-02-10T13:05:59;102738.59;;;9.46
59339;BMP280;45117;50.960;5.500;2023-02-10T13:08:31;102742.06;;;9.47
59339;BMP280;45117;50.960;5.500;2023-02-10T13:11:05;102732.47;;;9.34
59339;BMP280;45117;50.960;5.500;2023-02-10T13:13:38;102723.09;;;9.28
59339;BMP280;45117;50.960;5.500;2023-02-10T13:16:10;102724.31;;;9.18
59339;BMP280;45117;50.960;5.500;2023-02-10T13:18:47;102721.16;;;9.16
59339;BMP280;45117;50.960;5.500;2023-02-10T13:21:19;102729.09;;;9.12
59339;BMP280;45117;50.960;5.500;2023-02-10T13:23:52;102726.91;;;9.14
59339;BMP280;45117;50.960;5.500;2023-02-10T13:26:34;102734.84;;;9.23
59339;BMP280;45117;50.960;5.500;2023-02-10T13:29:12;102727.66;;;9.27
59339;BMP280;45117;50.960;5.500;2023-02-10T13:31:54;102725.00;;;9.15
59339;BMP280;45117;50.960;5.500;2023-02-10T13:34:24;102724.88;;;9.11
59339;BMP280;45117;50.960;5.500;2023-02-10T13:36:56;102722.31;;;9.27
59339;BMP280;45117;50.960;5.500;2023-02-10T13:39:25;102727.97;;;9.25
59339;BMP280;45117;50.960;5.500;2023-02-10T13:42:07;102730.22;;;9.11
59339;BMP280;45117;50.960;5.500;2023-02-10T13:44:36;102726.88;;;9.27
59339;BMP280;45117;50.960;5.500;2023-02-10T13:47:29;102727.47;;;9.32
59339;BMP280;45117;50.960;5.500;2023-02-10T13:49:58;102718.38;;;9.24
59339;BMP280;45117;50.960;5.500;2023-02-10T13:52:30;102709.16;;;9.22
59339;BMP280;45117;50.960;5.500;2023-02-10T13:54:59;102717.84;;;9.19
59339;BMP280;45117;50.960;5.500;2023-02-10T13:57:30;102714.81;;;9.20
59339;BMP280;45117;50.960;5.500;2023-02-10T14:00:17;102710.59;;;9.32
59339;BMP280;45117;50.960;5.500;2023-02-10T14:02:58;102707.66;;;9.37
59339;BMP280;45117;50.960;5.500;2023-02-10T14:05:28;102712.16;;;9.33
59339;BMP280;45117;50.960;5.500;2023-02-10T14:07:57;102715.72;;;9.37
59339;BMP280;45117;50.960;5.500;2023-02-10T14:10:31;102705.53;;;9.30
59339;BMP280;45117;50.960;5.500;2023-02-10T14:13:01;102706.22;;;9.27
59339;BMP280;45117;50.960;5.500;2023-02-10T14:15:29;102695.81;;;9.38
59339;BMP280;45117;50.960;5.500;2023-02-10T14:18:00;102696.50;;;9.35
59339;BMP280;45117;50.960;5.500;2023-02-10T14:20:30;102711.78;;;9.46
59339;BMP280;45117;50.960;5.500;2023-02-10T14:22:57;102705.34;;;9.35
59339;BMP280;45117;50.960;5.500;2023-02-10T14:25:35;102707.34;;;9.26